sensor_id;sensor_type;location;lat;lon;timestamp;pressure;altitude;pressure_sealevel;temperature;humidity
57048;BME280;42934;54.294;18.598;2023-04-10T00:01:58;101883.13;;;3.31;82.43
57048;BME280;42934;54.294;18.598;2023-04-10T00:04:27;101881.13;;;3.16;82.86
57048;BME280;42934;54.294;18.598;2023-04-10T00:06:56;101882.13;;;3.23;82.54
57048;BME280;42934;54.294;18.598;2023-04-10T00:09:25;101877.25;;;2.93;83.69
57048;BME280;42934;54.294;18.598;2023-04-10T00:11:56;101866.66;;;2.81;83.94
57048;BME280;42934;54.294;18.598;2023-04-10T00:14:26;101878.44;;;3.10;83.07
57048;BME280;42934;54.294;18.598;2023-04-10T00:16:55;101873.41;;;3.18;82.72
57048;BME280;42934;54.294;18.598;2023-04-10T00:19:25;101878.69;;;3.26;82.47
57048;BME280;42934;54.294;18.598;2023-04-10T00:21:55;101884.53;;;3.12;82.42
57048;BME280;42934;54.294;18.598;2023-04-10T00:24:24;101877.94;;;3.31;82.30
57048;BME280;42934;54.294;18.598;2023-04-10T00:26:53;101885.25;;;3.04;83.01
57048;BME280;42934;54.294;18.598;2023-04-10T00:29:23;101874.94;;;3.08;82.89
57048;BME280;42934;54.294;18.598;2023-04-10T00:31:54;101870.63;;;3.09;82.50
57048;BME280;42934;54.294;18.598;2023-04-10T00:34:23;101873.56;;;3.29;82.26
57048;BME280;42934;54.294;18.598;2023-04-10T00:36:53;101870.75;;;3.16;82.38
57048;BME280;42934;54.294;18.598;2023-04-10T00:39:22;101868.28;;;3.23;81.68
57048;BME280;42934;54.294;18.598;2023-04-10T00:41:51;101864.31;;;3.46;81.44
57048;BME280;42934;54.294;18.598;2023-04-10T00:44:20;101866.69;;;3.31;81.23
57048;BME280;42934;54.294;18.598;2023-04-10T00:46:49;101866.28;;;3.06;82.65
57048;BME280;42934;54.294;18.598;2023-04-10T00:49:20;101866.72;;;3.34;81.48
57048;BME280;42934;54.294;18.598;2023-04-10T00:51:49;101869.94;;;3.21;81.88
57048;BME280;42934;54.294;18.598;2023-04-10T00:54:19;101870.19;;;3.34;81.40
57048;BME280;42934;54.294;18.598;2023-04-10T00:56:49;101868.31;;;3.24;80.77
57048;BME280;42934;54.294;18.598;2023-04-10T00:59:18;101867.69;;;3.40;80.26
57048;BME280;42934;54.294;18.598;2023-04-10T01:01:47;101869.28;;;3.32;80.34
57048;BME280;42934;54.294;18.598;2023-04-10T01:04:18;101862.63;;;3.48;80.42
57048;BME280;42934;54.294;18.598;2023-04-10T01:06:57;101872.69;;;3.27;81.15
57048;BME280;42934;54.294;18.598;2023-04-10T01:09:34;101869.78;;;3.63;79.47
57048;BME280;42934;54.294;18.598;2023-04-10T01:12:14;101868.50;;;3.36;79.31
57048;BME280;42934;54.294;18.598;2023-04-10T01:14:55;101876.41;;;3.42;79.35
57048;BME280;42934;54.294;18.598;2023-04-10T01:17:30;101872.84;;;3.37;79.43
57048;BME280;42934;54.294;18.598;2023-04-10T01:20:06;101869.78;;;3.10;80.78
57048;BME280;42934;54.294;18.598;2023-04-10T01:22:45;101870.41;;;2.96;81.20
57048;BME280;42934;54.294;18.598;2023-04-10T01:25:36;101853.25;;;3.03;80.76
57048;BME280;42934;54.294;18.598;2023-04-10T01:31:17;101870.47;;;3.53;78.38
57048;BME280;42934;54.294;18.598;2023-04-10T01:33:50;101869.94;;;3.71;77.39
57048;BME280;42934;54.294;18.598;2023-04-10T01:36:23;101861.22;;;3.70;76.83
57048;BME280;42934;54.294;18.598;2023-04-10T01:38:56;101866.47;;;3.72;76.59
57048;BME280;42934;54.294;18.598;2023-04-10T01:41:26;101867.25;;;3.68;76.63
57048;BME280;42934;54.294;18.598;2023-04-10T01:43:57;101860.28;;;3.63;76.92
57048;BME280;42934;54.294;18.598;2023-04-10T01:46:29;101869.38;;;3.37;77.37
57048;BME280;42934;54.294;18.598;2023-04-10T01:49:00;101870.88;;;3.23;78.13
57048;BME280;42934;54.294;18.598;2023-04-10T01:51:30;101872.06;;;3.43;77.49
57048;BME280;42934;54.294;18.598;2023-04-10T01:54:03;101876.41;;;3.44;77.03
57048;BME280;42934;54.294;18.598;2023-04-10T01:56:34;101877.94;;;3.31;77.11
57048;BME280;42934;54.294;18.598;2023-04-10T01:59:04;101872.69;;;3.27;77.06
57048;BME280;42934;54.294;18.598;2023-04-10T02:01:34;101872.63;;;3.24;77.09
57048;BME280;42934;54.294;18.598;2023-04-10T02:04:04;101865.78;;;3.29;77.65
57048;BME280;42934;54.294;18.598;2023-04-10T02:06:43;101868.56;;;3.41;76.88
57048;BME280;42934;54.294;18.598;2023-04-10T02:09:18;101864.28;;;3.41;76.72
57048;BME280;42934;54.294;18.598;2023-04-10T02:11:53;101865.06;;;3.37;77.06
57048;BME280;42934;54.294;18.598;2023-04-10T02:14:25;101863.63;;;3.05;78.36
57048;BME280;42934;54.294;18.598;2023-04-10T02:16:58;101858.50;;;3.08;78.86
57048;BME280;42934;54.294;18.598;2023-04-10T02:19:30;101859.91;;;2.90;79.90
57048;BME280;42934;54.294;18.598;2023-04-10T02:22:01;101855.69;;;2.97;80.05
57048;BME280;42934;54.294;18.598;2023-04-10T02:24:34;101859.25;;;3.01;79.56
57048;BME280;42934;54.294;18.598;2023-04-10T02:27:04;101867.81;;;2.96;79.33
57048;BME280;42934;54.294;18.598;2023-04-10T02:29:33;101859.91;;;2.90;80.07
57048;BME280;42934;54.294;18.598;2023-04-10T02:32:05;101854.44;;;2.75;80.15
57048;BME280;42934;54.294;18.598;2023-04-10T02:34:34;101859.16;;;2.96;80.02
57048;BME280;42934;54.294;18.598;2023-04-10T02:37:05;101857.84;;;2.72;80.20
57048;BME280;42934;54.294;18.598;2023-04-10T02:39:34;101862.00;;;2.64;81.48
57048;BME280;42934;54.294;18.598;2023-04-10T02:42:04;101866.34;;;2.64;81.25
57048;BME280;42934;54.294;18.598;2023-04-10T02:44:36;101866.28;;;2.61;81.89
57048;BME280;42934;54.294;18.598;2023-04-10T02:47:07;101871.78;;;2.78;80.91
57048;BME280;42934;54.294;18.598;2023-04-10T02:49:38;101872.78;;;2.84;80.67
57048;BME280;42934;54.294;18.598;2023-04-10T02:52:12;101876.63;;;2.59;80.76
57048;BME280;42934;54.294;18.598;2023-04-10T02:54:42;101870.13;;;2.81;80.50
57048;BME280;42934;54.294;18.598;2023-04-10T02:57:11;101871.50;;;3.09;79.37
57048;BME280;42934;54.294;18.598;2023-04-10T02:59:40;101874.34;;;2.76;79.75
57048;BME280;42934;54.294;18.598;2023-04-10T03:02:11;101865.50;;;2.65;80.40
57048;BME280;42934;54.294;18.598;2023-04-10T03:04:42;101867.34;;;2.72;80.92
57048;BME280;42934;54.294;18.598;2023-04-10T03:07:11;101865.75;;;2.79;80.52
57048;BME280;42934;54.294;18.598;2023-04-10T03:09:41;101863.16;;;2.79;80.26
57048;BME280;42934;54.294;18.598;2023-04-10T03:12:09;101865.78;;;2.80;79.62
57048;BME280;42934;54.294;18.598;2023-04-10T03:14:39;101868.88;;;3.08;79.62
57048;BME280;42934;54.294;18.598;2023-04-10T03:17:08;101865.78;;;3.29;78.26
57048;BME280;42934;54.294;18.598;2023-04-10T03:19:40;101863.31;;;3.38;77.20
57048;BME280;42934;54.294;18.598;2023-04-10T03:22:09;101871.94;;;3.34;77.13
57048;BME280;42934;54.294;18.598;2023-04-10T03:24:40;101868.13;;;3.13;77.14
57048;BME280;42934;54.294;18.598;2023-04-10T03:27:09;101873.09;;;3.03;77.72
57048;BME280;42934;54.294;18.598;2023-04-10T03:29:38;101867.56;;;2.83;78.95
57048;BME280;42934;54.294;18.598;2023-04-10T03:32:08;101874.09;;;2.62;79.84
57048;BME280;42934;54.294;18.598;2023-04-10T03:34:37;101866.56;;;2.32;80.62
57048;BME280;42934;54.294;18.598;2023-04-10T03:37:07;101869.03;;;2.70;79.66
57048;BME280;42934;54.294;18.598;2023-04-10T03:39:37;101864.03;;;2.79;78.68
57048;BME280;42934;54.294;18.598;2023-04-10T03:42:07;101866.31;;;2.20;80.82
57048;BME280;42934;54.294;18.598;2023-04-10T03:44:36;101873.94;;;2.12;81.94
57048;BME280;42934;54.294;18.598;2023-04-10T03:47:07;101869.38;;;2.02;82.42
57048;BME280;42934;54.294;18.598;2023-04-10T03:49:37;101867.53;;;2.36;81.52
57048;BME280;42934;54.294;18.598;2023-04-10T03:52:08;101866.56;;;2.75;79.88
57048;BME280;42934;54.294;18.598;2023-04-10T03:54:38;101871.16;;;2.89;78.35
57048;BME280;42934;54.294;18.598;2023-04-10T03:57:11;101876.13;;;2.77;78.45
57048;BME280;42934;54.294;18.598;2023-04-10T03:59:40;101872.50;;;2.69;78.38
57048;BME280;42934;54.294;18.598;2023-04-10T04:02:12;101876.28;;;2.44;78.71
57048;BME280;42934;54.294;18.598;2023-04-10T04:04:43;101880.91;;;2.57;78.82
57048;BME280;42934;54.294;18.598;2023-04-10T04:07:33;101878.25;;;2.54;78.45
57048;BME280;42934;54.294;18.598;2023-04-10T04:10:17;101875.66;;;2.56;78.69
57048;BME280;42934;54.294;18.598;2023-04-10T04:13:10;101877.16;;;2.43;79.41
57048;BME280;42934;54.294;18.598;2023-04-10T04:16:09;101883.59;;;2.62;78.25
57048;BME280;42934;54.294;18.598;2023-04-10T04:18:54;101883.16;;;2.40;80.03
57048;BME280;42934;54.294;18.598;2023-04-10T04:21:37;101879.72;;;2.41;79.46
57048;BME280;42934;54.294;18.598;2023-04-10T04:24:26;101882.56;;;2.54;78.63
57048;BME280;42934;54.294;18.598;2023-04-10T04:27:07;101895.41;;;2.49;78.91
57048;BME280;42934;54.294;18.598;2023-04-10T04:29:55;101897.50;;;2.65;78.31
57048;BME280;42934;54.294;18.598;2023-04-10T04:32:44;101894.84;;;2.62;78.56
57048;BME280;42934;54.294;18.598;2023-04-10T04:35:46;101892.47;;;2.75;78.33
57048;BME280;42934;54.294;18.598;2023-04-10T04:38:36;101896.06;;;2.81;77.88
57048;BME280;42934;54.294;18.598;2023-04-10T04:41:31;101903.13;;;2.88;77.33
57048;BME280;42934;54.294;18.598;2023-04-10T04:44:18;101906.66;;;2.93;77.73
57048;BME280;42934;54.294;18.598;2023-04-10T04:46:59;101906.59;;;2.89;79.22
57048;BME280;42934;54.294;18.598;2023-04-10T04:49:48;101896.56;;;3.07;77.82
57048;BME280;42934;54.294;18.598;2023-04-10T04:52:17;101905.16;;;3.05;78.95
57048;BME280;42934;54.294;18.598;2023-04-10T04:54:59;101912.13;;;3.09;79.50
57048;BME280;42934;54.294;18.598;2023-04-10T04:57:47;101908.72;;;3.10;80.09
57048;BME280;42934;54.294;18.598;2023-04-10T05:00:40;101914.72;;;3.09;80.59
57048;BME280;42934;54.294;18.598;2023-04-10T05:03:24;101897.63;;;2.73;81.43
57048;BME280;42934;54.294;18.598;2023-04-10T05:06:04;101917.84;;;2.89;81.90
57048;BME280;42934;54.294;18.598;2023-04-10T05:08:59;101918.28;;;3.12;81.23
57048;BME280;42934;54.294;18.598;2023-04-10T05:11:48;101925.97;;;3.08;81.31
57048;BME280;42934;54.294;18.598;2023-04-10T05:14:35;101922.94;;;3.32;80.42
57048;BME280;42934;54.294;18.598;2023-04-10T05:17:20;101925.88;;;3.52;79.65
57048;BME280;42934;54.294;18.598;2023-04-10T05:19:57;101919.19;;;3.66;79.30
57048;BME280;42934;54.294;18.598;2023-04-10T05:22:56;101921.03;;;3.73;78.53
57048;BME280;42934;54.294;18.598;2023-04-10T05:25:35;101921.78;;;3.68;79.11
57048;BME280;42934;54.294;18.598;2023-04-10T05:28:31;101922.97;;;3.86;78.14
57048;BME280;42934;54.294;18.598;2023-04-10T05:31:20;101925.75;;;3.97;77.82
57048;BME280;42934;54.294;18.598;2023-04-10T05:33:55;101921.38;;;3.96;78.14
57048;BME280;42934;54.294;18.598;2023-04-10T05:36:44;101920.59;;;4.02;78.01
57048;BME280;42934;54.294;18.598;2023-04-10T05:39:32;101918.03;;;4.03;78.05
57048;BME280;42934;54.294;18.598;2023-04-10T05:42:21;101915.63;;;4.16;77.84
57048;BME280;42934;54.294;18.598;2023-04-10T05:45:17;101919.16;;;4.21;77.60
57048;BME280;42934;54.294;18.598;2023-04-10T05:48:00;101921.91;;;4.35;77.40
57048;BME280;42934;54.294;18.598;2023-04-10T05:50:51;101923.72;;;4.40;77.14
57048;BME280;42934;54.294;18.598;2023-04-10T05:53:39;101915.97;;;4.43;77.05
57048;BME280;42934;54.294;18.598;2023-04-10T05:56:27;101914.47;;;4.61;76.04
57048;BME280;42934;54.294;18.598;2023-04-10T05:59:21;101920.66;;;4.72;75.79
57048;BME280;42934;54.294;18.598;2023-04-10T06:02:20;101918.19;;;4.84;75.98
57048;BME280;42934;54.294;18.598;2023-04-10T06:04:52;101926.09;;;4.93;75.45
57048;BME280;42934;54.294;18.598;2023-04-10T06:07:22;101916.53;;;4.91;75.42
57048;BME280;42934;54.294;18.598;2023-04-10T06:09:51;101920.13;;;5.00;74.94
57048;BME280;42934;54.294;18.598;2023-04-10T06:12:20;101922.78;;;5.08;75.09
57048;BME280;42934;54.294;18.598;2023-04-10T06:14:49;101928.09;;;5.16;74.86
57048;BME280;42934;54.294;18.598;2023-04-10T06:17:21;101931.63;;;5.21;74.54
57048;BME280;42934;54.294;18.598;2023-04-10T06:19:54;101932.59;;;5.34;75.16
57048;BME280;42934;54.294;18.598;2023-04-10T06:22:27;101923.13;;;5.43;74.05
57048;BME280;42934;54.294;18.598;2023-04-10T06:24:55;101930.19;;;5.54;74.15
57048;BME280;42934;54.294;18.598;2023-04-10T06:27:25;101926.75;;;5.61;73.33
57048;BME280;42934;54.294;18.598;2023-04-10T06:29:54;101930.34;;;5.72;73.43
57048;BME280;42934;54.294;18.598;2023-04-10T06:32:24;101928.66;;;5.80;72.73
57048;BME280;42934;54.294;18.598;2023-04-10T06:34:55;101928.72;;;5.89;72.52
57048;BME280;42934;54.294;18.598;2023-04-10T06:37:28;101928.81;;;5.96;72.02
57048;BME280;42934;54.294;18.598;2023-04-10T06:40:07;101926.25;;;6.03;70.77
57048;BME280;42934;54.294;18.598;2023-04-10T06:42:37;101925.47;;;6.15;71.74
57048;BME280;42934;54.294;18.598;2023-04-10T06:45:13;101931.59;;;6.28;72.18
57048;BME280;42934;54.294;18.598;2023-04-10T06:47:43;101933.38;;;6.38;70.87
57048;BME280;42934;54.294;18.598;2023-04-10T06:50:13;101929.91;;;6.37;70.80
57048;BME280;42934;54.294;18.598;2023-04-10T06:52:43;101929.13;;;6.48;71.38
57048;BME280;42934;54.294;18.598;2023-04-10T06:55:12;101925.66;;;6.58;71.10
57048;BME280;42934;54.294;18.598;2023-04-10T06:57:42;101924.84;;;6.67;70.34
57048;BME280;42934;54.294;18.598;2023-04-10T07:00:13;101928.31;;;6.73;68.84
57048;BME280;42934;54.294;18.598;2023-04-10T07:02:42;101932.72;;;6.80;68.70
57048;BME280;42934;54.294;18.598;2023-04-10T07:05:14;101925.81;;;6.95;68.64
57048;BME280;42934;54.294;18.598;2023-04-10T07:07:44;101926.66;;;7.00;68.43
57048;BME280;42934;54.294;18.598;2023-04-10T07:10:14;101927.59;;;7.16;68.42
57048;BME280;42934;54.294;18.598;2023-04-10T07:12:43;101924.13;;;7.21;67.38
57048;BME280;42934;54.294;18.598;2023-04-10T07:15:12;101922.41;;;7.33;72.26
57048;BME280;42934;54.294;18.598;2023-04-10T07:17:41;101925.03;;;7.39;71.29
57048;BME280;42934;54.294;18.598;2023-04-10T07:20:11;101924.16;;;7.54;72.30
57048;BME280;42934;54.294;18.598;2023-04-10T07:22:42;101922.41;;;7.66;71.62
57048;BME280;42934;54.294;18.598;2023-04-10T07:25:11;101926.78;;;7.66;72.60
57048;BME280;42934;54.294;18.598;2023-04-10T07:27:41;101924.16;;;7.73;71.59
57048;BME280;42934;54.294;18.598;2023-04-10T07:30:10;101930.22;;;7.85;71.66
57048;BME280;42934;54.294;18.598;2023-04-10T07:32:40;101918.91;;;7.95;70.74
57048;BME280;42934;54.294;18.598;2023-04-10T07:35:10;101915.38;;;8.08;69.89
57048;BME280;42934;54.294;18.598;2023-04-10T07:37:40;101918.84;;;8.23;70.66
57048;BME280;42934;54.294;18.598;2023-04-10T07:40:11;101923.19;;;8.31;68.56
57048;BME280;42934;54.294;18.598;2023-04-10T07:42:40;101922.31;;;8.43;68.10
57048;BME280;42934;54.294;18.598;2023-04-10T07:45:10;101924.03;;;8.52;68.28
57048;BME280;42934;54.294;18.598;2023-04-10T07:47:39;101917.00;;;8.58;65.54
57048;BME280;42934;54.294;18.598;2023-04-10T07:50:09;101923.97;;;8.69;66.24
57048;BME280;42934;54.294;18.598;2023-04-10T07:52:38;101920.44;;;8.77;66.20
57048;BME280;42934;54.294;18.598;2023-04-10T07:55:09;101919.44;;;8.94;62.84
57048;BME280;42934;54.294;18.598;2023-04-10T07:57:38;101930.72;;;9.08;65.20
57048;BME280;42934;54.294;18.598;2023-04-10T08:00:09;101914.91;;;9.20;63.46
57048;BME280;42934;54.294;18.598;2023-04-10T08:02:42;101912.25;;;9.31;66.19
57048;BME280;42934;54.294;18.598;2023-04-10T08:05:12;101911.28;;;9.38;62.94
57048;BME280;42934;54.294;18.598;2023-04-10T08:07:43;101908.69;;;9.41;61.05
57048;BME280;42934;54.294;18.598;2023-04-10T08:10:14;101897.97;;;9.64;65.26
57048;BME280;42934;54.294;18.598;2023-04-10T08:12:43;101901.34;;;9.80;62.65
57048;BME280;42934;54.294;18.598;2023-04-10T08:15:12;101898.63;;;9.88;64.35
57048;BME280;42934;54.294;18.598;2023-04-10T08:17:42;101903.00;;;9.92;62.20
57048;BME280;42934;54.294;18.598;2023-04-10T08:20:12;101908.06;;;10.06;63.13
57048;BME280;42934;54.294;18.598;2023-04-10T08:22:42;101892.22;;;10.16;59.96
57048;BME280;42934;54.294;18.598;2023-04-10T08:25:11;101882.59;;;10.18;62.77
57048;BME280;42934;54.294;18.598;2023-04-10T08:27:41;101895.50;;;10.40;63.31
57048;BME280;42934;54.294;18.598;2023-04-10T08:30:11;101897.16;;;10.47;59.33
57048;BME280;42934;54.294;18.598;2023-04-10T08:32:40;101897.19;;;10.44;60.11
57048;BME280;42934;54.294;18.598;2023-04-10T08:35:09;101897.00;;;10.59;61.48
57048;BME280;42934;54.294;18.598;2023-04-10T08:37:39;101893.22;;;10.79;61.68
57048;BME280;42934;54.294;18.598;2023-04-10T08:40:08;101898.44;;;10.83;55.95
57048;BME280;42934;54.294;18.598;2023-04-10T08:42:38;101897.41;;;10.95;60.08
57048;BME280;42934;54.294;18.598;2023-04-10T08:45:09;101895.44;;;11.09;60.20
57048;BME280;42934;54.294;18.598;2023-04-10T08:47:40;101886.72;;;11.06;54.89
57048;BME280;42934;54.294;18.598;2023-04-10T08:50:12;101894.50;;;11.15;56.00
57048;BME280;42934;54.294;18.598;2023-04-10T08:52:54;101892.72;;;11.14;59.07
57048;BME280;42934;54.294;18.598;2023-04-10T08:55:24;101894.31;;;11.26;59.56
57048;BME280;42934;54.294;18.598;2023-04-10T08:57:54;101885.03;;;11.57;57.80
57048;BME280;42934;54.294;18.598;2023-04-10T09:00:28;101884.00;;;11.68;56.12
57048;BME280;42934;54.294;18.598;2023-04-10T09:03:01;101882.91;;;11.79;58.23
57048;BME280;42934;54.294;18.598;2023-04-10T09:05:32;101880.88;;;11.95;57.22
57048;BME280;42934;54.294;18.598;2023-04-10T09:08:03;101880.63;;;12.09;56.01
57048;BME280;42934;54.294;18.598;2023-04-10T09:10:33;101873.47;;;12.16;54.65
57048;BME280;42934;54.294;18.598;2023-04-10T09:13:02;101872.38;;;12.27;58.21
57048;BME280;42934;54.294;18.598;2023-04-10T09:15:54;101874.78;;;12.38;52.77
57048;BME280;42934;54.294;18.598;2023-04-10T09:18:40;101874.59;;;12.47;51.30
57048;BME280;42934;54.294;18.598;2023-04-10T09:21:11;101876.06;;;12.61;54.42
57048;BME280;42934;54.294;18.598;2023-04-10T09:23:43;101875.16;;;12.62;54.04
57048;BME280;42934;54.294;18.598;2023-04-10T09:26:23;101866.50;;;12.55;51.80
57048;BME280;42934;54.294;18.598;2023-04-10T09:28:59;101862.66;;;12.71;55.06
57048;BME280;42934;54.294;18.598;2023-04-10T09:31:31;101859.44;;;12.98;49.49
57048;BME280;42934;54.294;18.598;2023-04-10T09:34:11;101862.09;;;12.96;51.06
57048;BME280;42934;54.294;18.598;2023-04-10T09:36:41;101863.88;;;12.94;48.58
57048;BME280;42934;54.294;18.598;2023-04-10T09:39:12;101859.38;;;12.99;50.28
57048;BME280;42934;54.294;18.598;2023-04-10T09:41:49;101854.88;;;13.04;53.86
57048;BME280;42934;54.294;18.598;2023-04-10T09:44:28;101854.56;;;13.18;55.23
57048;BME280;42934;54.294;18.598;2023-04-10T09:46:58;101850.06;;;13.22;55.55
57048;BME280;42934;54.294;18.598;2023-04-10T09:49:27;101851.31;;;13.43;52.47
57048;BME280;42934;54.294;18.598;2023-04-10T09:51:57;101850.19;;;13.53;51.50
57048;BME280;42934;54.294;18.598;2023-04-10T09:54:36;101858.41;;;13.40;50.51
57048;BME280;42934;54.294;18.598;2023-04-10T09:57:06;101854.91;;;13.40;50.78
57048;BME280;42934;54.294;18.598;2023-04-10T09:59:37;101839.69;;;13.51;51.55
57048;BME280;42934;54.294;18.598;2023-04-10T10:02:11;101844.28;;;13.76;51.68
57048;BME280;42934;54.294;18.598;2023-04-10T10:04:42;101837.91;;;13.84;54.47
57048;BME280;42934;54.294;18.598;2023-04-10T10:07:13;101833.94;;;14.01;53.71
57048;BME280;42934;54.294;18.598;2023-04-10T10:09:45;101835.38;;;14.13;52.31
57048;BME280;42934;54.294;18.598;2023-04-10T10:12:16;101836.34;;;14.08;48.64
57048;BME280;42934;54.294;18.598;2023-04-10T10:14:53;101835.09;;;14.22;51.82
57048;BME280;42934;54.294;18.598;2023-04-10T10:17:31;101818.16;;;14.29;50.17
57048;BME280;42934;54.294;18.598;2023-04-10T10:20:06;101826.69;;;14.39;50.74
57048;BME280;42934;54.294;18.598;2023-04-10T10:22:37;101813.38;;;14.42;45.96
57048;BME280;42934;54.294;18.598;2023-04-10T10:25:08;101816.66;;;14.51;47.34
57048;BME280;42934;54.294;18.598;2023-04-10T10:27:39;101812.00;;;14.60;51.41
57048;BME280;42934;54.294;18.598;2023-04-10T10:30:10;101811.63;;;14.70;46.93
57048;BME280;42934;54.294;18.598;2023-04-10T10:32:56;101806.84;;;14.83;46.44
57048;BME280;42934;54.294;18.598;2023-04-10T10:35:26;101803.09;;;14.90;46.54
57048;BME280;42934;54.294;18.598;2023-04-10T10:37:58;101791.34;;;14.99;44.91
57048;BME280;42934;54.294;18.598;2023-04-10T10:40:32;101797.16;;;15.10;43.63
57048;BME280;42934;54.294;18.598;2023-04-10T10:43:14;101786.53;;;15.12;44.28
57048;BME280;42934;54.294;18.598;2023-04-10T10:45:51;101791.81;;;15.12;47.32
57048;BME280;42934;54.294;18.598;2023-04-10T10:48:23;101786.97;;;15.25;45.76
57048;BME280;42934;54.294;18.598;2023-04-10T10:50:53;101791.44;;;15.22;44.56
57048;BME280;42934;54.294;18.598;2023-04-10T10:53:45;101781.16;;;15.40;44.00
57048;BME280;42934;54.294;18.598;2023-04-10T10:56:35;101792.75;;;15.61;46.69
57048;BME280;42934;54.294;18.598;2023-04-10T10:59:04;101781.94;;;15.67;46.28
57048;BME280;42934;54.294;18.598;2023-04-10T11:01:33;101776.94;;;15.84;44.75
57048;BME280;42934;54.294;18.598;2023-04-10T11:04:40;101777.41;;;15.96;45.66
57048;BME280;42934;54.294;18.598;2023-04-10T11:07:10;101779.59;;;16.08;45.55
57048;BME280;42934;54.294;18.598;2023-04-10T11:09:49;101765.50;;;16.07;43.50
57048;BME280;42934;54.294;18.598;2023-04-10T11:12:22;101764.22;;;16.18;44.03
57048;BME280;42934;54.294;18.598;2023-04-10T11:14:58;101763.81;;;16.28;44.10
57048;BME280;42934;54.294;18.598;2023-04-10T11:17:48;101763.16;;;16.45;43.71
57048;BME280;42934;54.294;18.598;2023-04-10T11:20:19;101759.44;;;16.49;40.23
57048;BME280;42934;54.294;18.598;2023-04-10T11:23:07;101760.63;;;16.42;41.59
57048;BME280;42934;54.294;18.598;2023-04-10T11:25:46;101754.66;;;16.59;42.56
57048;BME280;42934;54.294;18.598;2023-04-10T11:28:38;101753.00;;;16.78;40.95
57048;BME280;42934;54.294;18.598;2023-04-10T11:31:18;101745.06;;;16.78;40.87
57048;BME280;42934;54.294;18.598;2023-04-10T11:33:50;101737.66;;;17.07;38.85
57048;BME280;42934;54.294;18.598;2023-04-10T11:36:20;101739.06;;;17.16;38.44
57048;BME280;42934;54.294;18.598;2023-04-10T11:38:56;101736.19;;;17.20;39.84
57048;BME280;42934;54.294;18.598;2023-04-10T11:41:26;101729.75;;;17.06;37.01
57048;BME280;42934;54.294;18.598;2023-04-10T11:43:59;101737.13;;;17.40;39.75
57048;BME280;42934;54.294;18.598;2023-04-10T11:46:29;101734.31;;;17.63;39.36
57048;BME280;42934;54.294;18.598;2023-04-10T11:48:59;101729.53;;;17.92;38.02
57048;BME280;42934;54.294;18.598;2023-04-10T11:51:29;101720.31;;;17.99;38.02
57048;BME280;42934;54.294;18.598;2023-04-10T11:54:05;101720.41;;;17.98;38.21
57048;BME280;42934;54.294;18.598;2023-04-10T11:56:36;101724.56;;;18.03;39.59
57048;BME280;42934;54.294;18.598;2023-04-10T11:59:07;101720.69;;;18.10;40.19
57048;BME280;42934;54.294;18.598;2023-04-10T12:01:38;101714.56;;;18.08;39.02
57048;BME280;42934;54.294;18.598;2023-04-10T12:04:13;101709.69;;;18.18;38.99
57048;BME280;42934;54.294;18.598;2023-04-10T12:06:45;101705.59;;;18.11;37.73
57048;BME280;42934;54.294;18.598;2023-04-10T12:09:15;101703.13;;;18.25;39.46
57048;BME280;42934;54.294;18.598;2023-04-10T12:11:49;101706.94;;;18.38;39.02
57048;BME280;42934;54.294;18.598;2023-04-10T12:14:22;101700.63;;;18.58;40.17
57048;BME280;42934;54.294;18.598;2023-04-10T12:16:51;101705.38;;;18.71;39.48
57048;BME280;42934;54.294;18.598;2023-04-10T12:19:21;101705.38;;;18.71;39.66
57048;BME280;42934;54.294;18.598;2023-04-10T12:21:50;101695.78;;;18.67;37.49
57048;BME280;42934;54.294;18.598;2023-04-10T12:24:40;101692.91;;;18.71;39.03
57048;BME280;42934;54.294;18.598;2023-04-10T12:27:15;101690.47;;;18.86;39.61
57048;BME280;42934;54.294;18.598;2023-04-10T12:29:48;101684.25;;;18.85;37.42
57048;BME280;42934;54.294;18.598;2023-04-10T12:32:18;101688.03;;;18.81;40.26
57048;BME280;42934;54.294;18.598;2023-04-10T12:34:50;101682.34;;;18.70;38.37
57048;BME280;42934;54.294;18.598;2023-04-10T12:37:20;101684.03;;;18.90;39.25
57048;BME280;42934;54.294;18.598;2023-04-10T12:39:49;101671.34;;;18.95;39.14
57048;BME280;42934;54.294;18.598;2023-04-10T12:42:20;101679.56;;;18.90;37.50
57048;BME280;42934;54.294;18.598;2023-04-10T12:44:52;101671.25;;;18.96;37.54
57048;BME280;42934;54.294;18.598;2023-04-10T12:47:22;101671.25;;;18.79;37.78
57048;BME280;42934;54.294;18.598;2023-04-10T12:50:08;101666.03;;;18.77;38.29
57048;BME280;42934;54.294;18.598;2023-04-10T12:52:39;101658.69;;;18.82;38.01
57048;BME280;42934;54.294;18.598;2023-04-10T12:55:10;101659.75;;;18.78;37.75
57048;BME280;42934;54.294;18.598;2023-04-10T12:57:41;101660.47;;;18.82;39.54
57048;BME280;42934;54.294;18.598;2023-04-10T13:00:12;101649.81;;;18.82;37.77
57048;BME280;42934;54.294;18.598;2023-04-10T13:02:42;101649.13;;;18.96;38.58
57048;BME280;42934;54.294;18.598;2023-04-10T13:05:12;101644.94;;;18.73;38.39
57048;BME280;42934;54.294;18.598;2023-04-10T13:07:41;101640.50;;;18.91;39.80
57048;BME280;42934;54.294;18.598;2023-04-10T13:10:10;101637.13;;;18.87;38.90
57048;BME280;42934;54.294;18.598;2023-04-10T13:12:40;101637.78;;;18.75;39.00
57048;BME280;42934;54.294;18.598;2023-04-10T13:15:12;101625.63;;;18.87;37.88
57048;BME280;42934;54.294;18.598;2023-04-10T13:17:41;101625.25;;;18.77;37.84
57048;BME280;42934;54.294;18.598;2023-04-10T13:20:11;101624.47;;;18.92;38.45
57048;BME280;42934;54.294;18.598;2023-04-10T13:22:40;101624.38;;;18.94;37.90
57048;BME280;42934;54.294;18.598;2023-04-10T13:25:09;101621.78;;;19.10;39.11